Terminal Aerodrome Forecast
Issued by NWS

Home | Current Version | Previous Version | Graphics & Text | Print | Product List | Glossary On
Versions: 1 2 3 4 5 6 7 8 9 10 11 12 13 14 15 16 17
000
FTUS43 KBIS 211600 AAB
TAFJMS
TAF AMD
KJMS 211619Z 2116/2212 30006KT P6SM SCT015 BKN025
      TEMPO 2116/2119 SCT007 BKN011
     FM211900 30005KT P6SM SCT010 SCT050
     FM212100 31004KT P6SM SCT060
     FM221100 04008KT P6SM VCTS BKN050CB=

USA.gov is the U.S. government's official web portal to all federal, state and local government web resources and services.